Humboldt Bay — A8OL4 — position and weather

sailwx.info

Track history (hours):
 
Tides and Currents Weather Stations Pressure Air Temp Water Temp Dewpoint Dewpoint Depression Visibility Wind Speed Wind Dir Waves Ship Positions

Humboldt Bay

Last reported at 2014-Oct-30 03:32 UTC. Time now 2014-Oct-30 16:52 UTC.
Position N 37°38' W 000°26'.

Length 147 m; draft 6 m.

Type: Cargo ship. MMSI: 636013649.

Date/timePositionNaut miles runAvg speedWind from/ knotsBaromVisibWave heightAir tempDewpointWater temp
2014-Oct-30 03:32N 37°38' W 000°26'1616.5
2014-Oct-30 02:33N 37°26' W 000°40'24216.1
2014-Oct-29 11:33N 35°54' W 005°18'1 0.7
2014-Oct-29 10:33N 35°54' W 005°18'0 0.0
2014-Oct-29 09:33N 35°54' W 005°18'0 0.0
2014-Oct-29 08:33N 35°54' W 005°18'0 0.0
2014-Oct-29 07:33N 35°54' W 005°18'0 0.0
2014-Oct-29 06:33N 35°54' W 005°18'0 0.0
2014-Oct-29 05:34N 35°54' W 005°18'0 0.0
2014-Oct-29 04:30N 35°54' W 005°18'0 0.0
2014-Oct-29 03:33N 35°54' W 005°18'0 0.0
2014-Oct-29 02:33N 35°54' W 005°18'2 1.9
2014-Oct-29 01:33N 35°55' W 005°20'0 0.2
2014-Oct-29 00:33N 35°55' W 005°20'0 0.0
2014-Oct-28 23:33N 35°55' W 005°20'0 0.0
2014-Oct-28 22:33N 35°55' W 005°20'0 0.0
2014-Oct-28 21:33N 35°55' W 005°20'1 0.8
2014-Oct-28 20:33N 35°55' W 005°19'8 7.7
2014-Oct-28 19:33N 36°03' W 005°19'4 3.9
2014-Oct-28 18:26N 36°07' W 005°18'0 0.0
2014-Oct-28 17:23N 36°07' W 005°18'0 0.1
2014-Oct-28 16:29N 36°07' W 005°18'0 0.0
2014-Oct-28 15:32N 36°07' W 005°18'0 0.0
2014-Oct-28 14:32N 36°07' W 005°18'0 0.0
2014-Oct-28 13:32N 36°07' W 005°18'0 0.0
2014-Oct-28 12:29N 36°07' W 005°18'0 0.0
2014-Oct-28 11:32N 36°07' W 005°18'0 0.0
2014-Oct-28 10:26N 36°07' W 005°18'0 0.0
2014-Oct-28 09:32N 36°07' W 005°18'0 0.0
2014-Oct-28 08:32N 36°07' W 005°18'0 0.0
2014-Oct-28 07:23N 36°07' W 005°18'0 0.0
2014-Oct-28 06:29N 36°07' W 005°18'0 0.0
2014-Oct-28 05:26N 36°07' W 005°18'0 0.0
2014-Oct-28 04:32N 36°07' W 005°18'0 0.0
2014-Oct-28 03:29N 36°07' W 005°18'0 0.0
2014-Oct-28 02:05N 36°07' W 005°18'0 0.0
2014-Oct-28 01:29N 36°07' W 005°18'0 0.0
2014-Oct-28 00:29N 36°07' W 005°18'0 0.0
2014-Oct-27 23:29N 36°07' W 005°18'0 0.0
2014-Oct-27 22:29N 36°07' W 005°18'0 0.0
2014-Oct-27 21:29N 36°07' W 005°18'0 0.0
2014-Oct-27 20:29N 36°07' W 005°18'0 0.0
2014-Oct-27 19:29N 36°07' W 005°18'0 0.0
2014-Oct-27 16:17N 36°07' W 005°18'0 0.0
2014-Oct-27 15:23N 36°07' W 005°18'0 0.0
2014-Oct-27 14:29N 36°07' W 005°18'0 0.0
2014-Oct-27 13:32N 36°07' W 005°18'0 0.0
2014-Oct-27 12:29N 36°07' W 005°18'0 0.0
2014-Oct-27 11:29N 36°07' W 005°18'0 0.1
2014-Oct-27 10:32N 36°07' W 005°18'0 0.0
2014-Oct-27 09:32N 36°07' W 005°18'0 0.0
2014-Oct-27 08:17N 36°07' W 005°18'0 0.0
2014-Oct-27 07:23N 36°07' W 005°18'0 0.0
2014-Oct-27 06:29N 36°07' W 005°18'0 0.0
2014-Oct-27 05:29N 36°07' W 005°18'0 0.0
2014-Oct-27 03:11N 36°07' W 005°18'0 0.1
2014-Oct-27 02:14N 36°07' W 005°18'0 0.1
2014-Oct-27 01:23N 36°07' W 005°18'0 0.0
2014-Oct-26 23:29N 36°07' W 005°18'0 0.0
2014-Oct-26 22:32N 36°07' W 005°18'0 0.0
2014-Oct-26 21:29N 36°07' W 005°18'0 0.0
2014-Oct-26 20:29N 36°07' W 005°18'0 0.0
2014-Oct-26 19:32N 36°07' W 005°18'0 0.0
2014-Oct-26 18:29N 36°07' W 005°18'0 0.0
2014-Oct-26 14:17N 36°07' W 005°18'0 0.1
2014-Oct-26 13:05N 36°07' W 005°18'0 0.1
2014-Oct-26 12:23N 36°07' W 005°18'0 0.0
2014-Oct-26 11:29N 36°07' W 005°18'0 0.0
2014-Oct-26 10:29N 36°07' W 005°18'0 0.0
2014-Oct-26 09:29N 36°07' W 005°18'0 0.0
2014-Oct-26 08:32N 36°07' W 005°18'0 0.0
2014-Oct-26 06:32N 36°07' W 005°18'0 0.0
2014-Oct-26 05:29N 36°07' W 005°18'0 0.1
2014-Oct-26 04:29N 36°07' W 005°18'0 0.1
2014-Oct-26 03:32N 36°07' W 005°18'0 0.0
2014-Oct-26 02:17N 36°07' W 005°18'0 0.1
2014-Oct-26 01:26N 36°07' W 005°18'0 0.0
2014-Oct-26 00:32N 36°07' W 005°18'0 0.0
2014-Oct-25 23:29N 36°07' W 005°18'0 0.0
2014-Oct-25 22:29N 36°07' W 005°18'0 0.0
2014-Oct-25 21:32N 36°07' W 005°18'0 0.0
2014-Oct-25 20:32N 36°07' W 005°18'0 0.0
2014-Oct-25 19:32N 36°07' W 005°18'0 0.0
2014-Oct-25 18:32N 36°07' W 005°18'0 0.0
2014-Oct-25 17:32N 36°07' W 005°18'0 0.0
2014-Oct-25 16:32N 36°07' W 005°18'0 0.0
2014-Oct-25 15:23N 36°07' W 005°18'0 0.1
2014-Oct-25 14:32N 36°07' W 005°18'0 0.0
2014-Oct-25 13:32N 36°07' W 005°18'0 0.0
2014-Oct-25 12:29N 36°07' W 005°18'0 0.1
2014-Oct-25 11:32N 36°07' W 005°18'0 0.0
2014-Oct-25 09:32N 36°07' W 005°18'0 0.0
2014-Oct-25 08:26N 36°07' W 005°18'0 0.0
2014-Oct-25 07:28N 36°07' W 005°18'0 0.0
2014-Oct-25 06:32N 36°07' W 005°18'0 0.0
2014-Oct-25 05:29N 36°07' W 005°18'0 0.0
2014-Oct-25 04:29N 36°07' W 005°18'0 0.0
2014-Oct-25 03:32N 36°07' W 005°18'0 0.0
2014-Oct-25 02:29N 36°07' W 005°18'0 0.0
2014-Oct-25 01:29N 36°07' W 005°18'0 0.0
2014-Oct-25 00:28N 36°07' W 005°18'0 0.0
2014-Oct-24 23:31N 36°07' W 005°18'0 0.0
2014-Oct-24 22:32N 36°07' W 005°18'0 0.0
2014-Oct-24 21:29N 36°07' W 005°18'0 0.0
2014-Oct-24 20:26N 36°07' W 005°18'0 0.0
2014-Oct-24 19:29N 36°07' W 005°18'0 0.0
2014-Oct-24 18:31N 36°07' W 005°18'0 0.0
2014-Oct-24 17:28N 36°07' W 005°18'0 0.0
2014-Oct-24 16:28N 36°07' W 005°18'0 0.0
2014-Oct-24 15:31N 36°07' W 005°18'0 0.0
2014-Oct-24 13:22N 36°07' W 005°18'0 0.0
2014-Oct-24 12:28N 36°07' W 005°18'0 0.0
2014-Oct-24 11:28N 36°07' W 005°18'0 0.0
2014-Oct-24 10:31N 36°07' W 005°18'0 0.0
2014-Oct-24 09:28N 36°07' W 005°18'0 0.0
2014-Oct-24 08:31N 36°07' W 005°18'0 0.0
2014-Oct-24 07:28N 36°07' W 005°18'0 0.0
2014-Oct-24 06:28N 36°07' W 005°18'0 0.0
2014-Oct-24 05:31N 36°07' W 005°18'0 0.0
2014-Oct-24 04:31N 36°07' W 005°18'0 0.0
2014-Oct-24 03:28N 36°07' W 005°18'0 0.0
2014-Oct-24 02:31N 36°07' W 005°18'0 0.0
2014-Oct-24 01:31N 36°07' W 005°18'0 0.0
2014-Oct-24 00:31N 36°07' W 005°18'0 0.0
2014-Oct-23 23:31N 36°07' W 005°18'0 0.0
2014-Oct-23 22:31N 36°07' W 005°18'0 0.0
2014-Oct-23 21:28N 36°07' W 005°18'0 0.0
2014-Oct-23 20:31N 36°07' W 005°18'0 0.0
2014-Oct-23 19:31N 36°07' W 005°18'0 0.0
2014-Oct-23 18:31N 36°07' W 005°18'0 0.0
2014-Oct-23 17:28N 36°07' W 005°18'0 0.0
2014-Oct-23 16:31N 36°07' W 005°18'0 0.0
2014-Oct-23 15:28N 36°07' W 005°18'0 0.0
2014-Oct-23 14:28N 36°07' W 005°18'0 0.0
2014-Oct-23 13:31N 36°07' W 005°18'0 0.0
2014-Oct-23 12:31N 36°07' W 005°18'0 0.0
2014-Oct-23 11:31N 36°07' W 005°18'0 0.0
2014-Oct-23 10:31N 36°07' W 005°18'0 0.0
2014-Oct-23 09:31N 36°07' W 005°18'0 0.0
2014-Oct-23 08:28N 36°07' W 005°18'0 0.0
2014-Oct-23 07:31N 36°07' W 005°18'0 0.0
2014-Oct-23 06:31N 36°07' W 005°18'0 0.0
2014-Oct-23 05:31N 36°07' W 005°18'0 0.0
2014-Oct-23 04:31N 36°07' W 005°18'0 0.0
2014-Oct-23 03:31N 36°07' W 005°18'0 0.0
2014-Oct-23 02:31N 36°07' W 005°18'0 0.0
2014-Oct-23 01:31N 36°07' W 005°18'0 0.0
2014-Oct-23 00:31N 36°07' W 005°18'0 0.0
2014-Oct-22 23:28N 36°07' W 005°18'0 0.0
2014-Oct-22 22:31N 36°07' W 005°18'0 0.0
2014-Oct-22 21:31N 36°07' W 005°18'0 0.0
2014-Oct-22 20:31N 36°07' W 005°18'0 0.0
2014-Oct-22 19:31N 36°07' W 005°18'0 0.1
2014-Oct-22 18:31N 36°07' W 005°18'0 0.0
2014-Oct-22 17:31N 36°07' W 005°18'0 0.1
2014-Oct-22 16:31N 36°07' W 005°18'0 0.0
2014-Oct-22 15:31N 36°07' W 005°18'0 0.0
2014-Oct-22 14:22N 36°07' W 005°18'0 0.0
2014-Oct-22 10:31N 36°07' W 005°18'0 0.0
2014-Oct-22 09:31N 36°07' W 005°18'0 0.1
2014-Oct-22 08:28N 36°07' W 005°18'0 0.0
2014-Oct-22 07:31N 36°07' W 005°18'0 0.0
2014-Oct-22 06:31N 36°07' W 005°18'0 0.0
2014-Oct-22 05:31N 36°07' W 005°18'0 0.0
2014-Oct-22 04:31N 36°07' W 005°18'0 0.0
2014-Oct-22 03:22N 36°07' W 005°18'0 0.1
2014-Oct-22 02:10N 36°07' W 005°18'0 0.0
2014-Oct-22 01:31N 36°07' W 005°18'0 0.0
2014-Oct-21 22:10N 36°07' W 005°18'0 0.0
2014-Oct-21 21:31N 36°07' W 005°18'0 0.0
2014-Oct-21 20:16N 36°07' W 005°18'0 0.0
2014-Oct-21 18:31N 36°07' W 005°18'0 0.0
2014-Oct-21 17:28N 36°07' W 005°18'0 0.0
2014-Oct-21 16:28N 36°07' W 005°18'0 0.0
2014-Oct-21 15:31N 36°07' W 005°18'0 0.1
2014-Oct-21 14:31N 36°07' W 005°18'0 0.1
2014-Oct-21 13:25N 36°07' W 005°18'0 0.1
2014-Oct-21 12:22N 36°07' W 005°18'0 0.0
2014-Oct-21 10:25N 36°07' W 005°18'0 0.0
2014-Oct-21 09:31N 36°07' W 005°18'0 0.0
2014-Oct-21 08:28N 36°07' W 005°18'0 0.0
2014-Oct-21 07:28N 36°07' W 005°18'0 0.0
2014-Oct-21 06:25N 36°07' W 005°18'0 0.0
2014-Oct-21 05:28N 36°07' W 005°18'0 0.0
2014-Oct-21 04:16N 36°07' W 005°18'0 0.0
2014-Oct-21 03:31N 36°07' W 005°18'0 0.0
2014-Oct-21 02:28N 36°07' W 005°18'0 0.0
2014-Oct-21 01:04N 36°07' W 005°18'0 0.0
2014-Oct-21 00:22N 36°07' W 005°18'0 0.0
2014-Oct-20 22:19N 36°07' W 005°18'0 0.0
2014-Oct-20 21:19N 36°07' W 005°18'0 0.0
2014-Oct-20 19:28N 36°07' W 005°18'0 0.0
2014-Oct-20 16:16N 36°07' W 005°18'0 0.0
2014-Oct-20 15:04N 36°07' W 005°18'0 0.1
2014-Oct-20 14:28N 36°07' W 005°18'0 0.0
2014-Oct-20 13:28N 36°07' W 005°18'0 0.0
2014-Oct-20 12:10N 36°07' W 005°18'0 0.0
2014-Oct-20 11:04N 36°07' W 005°18'0 0.0
2014-Oct-20 10:04N 36°07' W 005°18'0 0.1
2014-Oct-20 09:31N 36°07' W 005°18'0 0.0
2014-Oct-20 07:31N 36°07' W 005°18'0 0.0
2014-Oct-20 06:31N 36°07' W 005°18'0 0.0
2014-Oct-20 05:28N 36°07' W 005°18'0 0.0
2014-Oct-20 04:31N 36°07' W 005°18'  
Track history (hours):
 
Tides and Currents Weather Stations Pressure Air Temp Water Temp Dewpoint Dewpoint Depression Visibility Wind Speed Wind Dir Waves Ship Positions

Humboldt Bay

Last reported at 2014-Oct-30 03:32 UTC. Time now 2014-Oct-30 16:52 UTC.
Position N 37°38' W 000°26'.

Length 147 m; draft 6 m.

Type: Cargo ship. MMSI: 636013649.

Date/timePositionNaut miles runAvg speedWind from/ knotsBaromVisibWave heightAir tempDewpointWater temp
2014-Oct-30 03:32N 37°38' W 000°26'1616.5
2014-Oct-30 02:33N 37°26' W 000°40'24216.1
2014-Oct-29 11:33N 35°54' W 005°18'1 0.7
2014-Oct-29 10:33N 35°54' W 005°18'0 0.0
2014-Oct-29 09:33N 35°54' W 005°18'0 0.0
2014-Oct-29 08:33N 35°54' W 005°18'0 0.0
2014-Oct-29 07:33N 35°54' W 005°18'0 0.0
2014-Oct-29 06:33N 35°54' W 005°18'0 0.0
2014-Oct-29 05:34N 35°54' W 005°18'0 0.0
2014-Oct-29 04:30N 35°54' W 005°18'0 0.0
2014-Oct-29 03:33N 35°54' W 005°18'0 0.0
2014-Oct-29 02:33N 35°54' W 005°18'2 1.9
2014-Oct-29 01:33N 35°55' W 005°20'0 0.2
2014-Oct-29 00:33N 35°55' W 005°20'0 0.0
2014-Oct-28 23:33N 35°55' W 005°20'0 0.0
2014-Oct-28 22:33N 35°55' W 005°20'0 0.0
2014-Oct-28 21:33N 35°55' W 005°20'1 0.8
2014-Oct-28 20:33N 35°55' W 005°19'8 7.7
2014-Oct-28 19:33N 36°03' W 005°19'4 3.9
2014-Oct-28 18:26N 36°07' W 005°18'0 0.0
2014-Oct-28 17:23N 36°07' W 005°18'0 0.1
2014-Oct-28 16:29N 36°07' W 005°18'0 0.0
2014-Oct-28 15:32N 36°07' W 005°18'0 0.0
2014-Oct-28 14:32N 36°07' W 005°18'0 0.0
2014-Oct-28 13:32N 36°07' W 005°18'0 0.0
2014-Oct-28 12:29N 36°07' W 005°18'0 0.0
2014-Oct-28 11:32N 36°07' W 005°18'0 0.0
2014-Oct-28 10:26N 36°07' W 005°18'0 0.0
2014-Oct-28 09:32N 36°07' W 005°18'0 0.0
2014-Oct-28 08:32N 36°07' W 005°18'0 0.0
2014-Oct-28 07:23N 36°07' W 005°18'0 0.0
2014-Oct-28 06:29N 36°07' W 005°18'0 0.0
2014-Oct-28 05:26N 36°07' W 005°18'0 0.0
2014-Oct-28 04:32N 36°07' W 005°18'0 0.0
2014-Oct-28 03:29N 36°07' W 005°18'0 0.0
2014-Oct-28 02:05N 36°07' W 005°18'0 0.0
2014-Oct-28 01:29N 36°07' W 005°18'0 0.0
2014-Oct-28 00:29N 36°07' W 005°18'0 0.0
2014-Oct-27 23:29N 36°07' W 005°18'0 0.0
2014-Oct-27 22:29N 36°07' W 005°18'0 0.0
2014-Oct-27 21:29N 36°07' W 005°18'0 0.0
2014-Oct-27 20:29N 36°07' W 005°18'0 0.0
2014-Oct-27 19:29N 36°07' W 005°18'0 0.0
2014-Oct-27 16:17N 36°07' W 005°18'0 0.0
2014-Oct-27 15:23N 36°07' W 005°18'0 0.0
2014-Oct-27 14:29N 36°07' W 005°18'0 0.0
2014-Oct-27 13:32N 36°07' W 005°18'0 0.0
2014-Oct-27 12:29N 36°07' W 005°18'0 0.0
2014-Oct-27 11:29N 36°07' W 005°18'0 0.1
2014-Oct-27 10:32N 36°07' W 005°18'0 0.0
2014-Oct-27 09:32N 36°07' W 005°18'0 0.0
2014-Oct-27 08:17N 36°07' W 005°18'0 0.0
2014-Oct-27 07:23N 36°07' W 005°18'0 0.0
2014-Oct-27 06:29N 36°07' W 005°18'0 0.0
2014-Oct-27 05:29N 36°07' W 005°18'0 0.0
2014-Oct-27 03:11N 36°07' W 005°18'0 0.1
2014-Oct-27 02:14N 36°07' W 005°18'0 0.1
2014-Oct-27 01:23N 36°07' W 005°18'0 0.0
2014-Oct-26 23:29N 36°07' W 005°18'0 0.0
2014-Oct-26 22:32N 36°07' W 005°18'0 0.0
2014-Oct-26 21:29N 36°07' W 005°18'0 0.0
2014-Oct-26 20:29N 36°07' W 005°18'0 0.0
2014-Oct-26 19:32N 36°07' W 005°18'0 0.0
2014-Oct-26 18:29N 36°07' W 005°18'0 0.0
2014-Oct-26 14:17N 36°07' W 005°18'0 0.1
2014-Oct-26 13:05N 36°07' W 005°18'0 0.1
2014-Oct-26 12:23N 36°07' W 005°18'0 0.0
2014-Oct-26 11:29N 36°07' W 005°18'0 0.0
2014-Oct-26 10:29N 36°07' W 005°18'0 0.0
2014-Oct-26 09:29N 36°07' W 005°18'0 0.0
2014-Oct-26 08:32N 36°07' W 005°18'0 0.0
2014-Oct-26 06:32N 36°07' W 005°18'0 0.0
2014-Oct-26 05:29N 36°07' W 005°18'0 0.1
2014-Oct-26 04:29N 36°07' W 005°18'0 0.1
2014-Oct-26 03:32N 36°07' W 005°18'0 0.0
2014-Oct-26 02:17N 36°07' W 005°18'0 0.1
2014-Oct-26 01:26N 36°07' W 005°18'0 0.0
2014-Oct-26 00:32N 36°07' W 005°18'0 0.0
2014-Oct-25 23:29N 36°07' W 005°18'0 0.0
2014-Oct-25 22:29N 36°07' W 005°18'0 0.0
2014-Oct-25 21:32N 36°07' W 005°18'0 0.0
2014-Oct-25 20:32N 36°07' W 005°18'0 0.0
2014-Oct-25 19:32N 36°07' W 005°18'0 0.0
2014-Oct-25 18:32N 36°07' W 005°18'0 0.0
2014-Oct-25 17:32N 36°07' W 005°18'0 0.0
2014-Oct-25 16:32N 36°07' W 005°18'0 0.0
2014-Oct-25 15:23N 36°07' W 005°18'0 0.1
2014-Oct-25 14:32N 36°07' W 005°18'0 0.0
2014-Oct-25 13:32N 36°07' W 005°18'0 0.0
2014-Oct-25 12:29N 36°07' W 005°18'0 0.1
2014-Oct-25 11:32N 36°07' W 005°18'0 0.0
2014-Oct-25 09:32N 36°07' W 005°18'0 0.0
2014-Oct-25 08:26N 36°07' W 005°18'0 0.0
2014-Oct-25 07:28N 36°07' W 005°18'0 0.0
2014-Oct-25 06:32N 36°07' W 005°18'0 0.0
2014-Oct-25 05:29N 36°07' W 005°18'0 0.0
2014-Oct-25 04:29N 36°07' W 005°18'0 0.0
2014-Oct-25 03:32N 36°07' W 005°18'0 0.0
2014-Oct-25 02:29N 36°07' W 005°18'0 0.0
2014-Oct-25 01:29N 36°07' W 005°18'0 0.0
2014-Oct-25 00:28N 36°07' W 005°18'0 0.0
2014-Oct-24 23:31N 36°07' W 005°18'0 0.0
2014-Oct-24 22:32N 36°07' W 005°18'0 0.0
2014-Oct-24 21:29N 36°07' W 005°18'0 0.0
2014-Oct-24 20:26N 36°07' W 005°18'0 0.0
2014-Oct-24 19:29N 36°07' W 005°18'0 0.0
2014-Oct-24 18:31N 36°07' W 005°18'0 0.0
2014-Oct-24 17:28N 36°07' W 005°18'0 0.0
2014-Oct-24 16:28N 36°07' W 005°18'0 0.0
2014-Oct-24 15:31N 36°07' W 005°18'0 0.0
2014-Oct-24 13:22N 36°07' W 005°18'0 0.0
2014-Oct-24 12:28N 36°07' W 005°18'0 0.0
2014-Oct-24 11:28N 36°07' W 005°18'0 0.0
2014-Oct-24 10:31N 36°07' W 005°18'0 0.0
2014-Oct-24 09:28N 36°07' W 005°18'0 0.0
2014-Oct-24 08:31N 36°07' W 005°18'0 0.0
2014-Oct-24 07:28N 36°07' W 005°18'0 0.0
2014-Oct-24 06:28N 36°07' W 005°18'0 0.0
2014-Oct-24 05:31N 36°07' W 005°18'0 0.0
2014-Oct-24 04:31N 36°07' W 005°18'0 0.0
2014-Oct-24 03:28N 36°07' W 005°18'0 0.0
2014-Oct-24 02:31N 36°07' W 005°18'0 0.0
2014-Oct-24 01:31N 36°07' W 005°18'0 0.0
2014-Oct-24 00:31N 36°07' W 005°18'0 0.0
2014-Oct-23 23:31N 36°07' W 005°18'0 0.0
2014-Oct-23 22:31N 36°07' W 005°18'0 0.0
2014-Oct-23 21:28N 36°07' W 005°18'0 0.0
2014-Oct-23 20:31N 36°07' W 005°18'0 0.0
2014-Oct-23 19:31N 36°07' W 005°18'0 0.0
2014-Oct-23 18:31N 36°07' W 005°18'0 0.0
2014-Oct-23 17:28N 36°07' W 005°18'0 0.0
2014-Oct-23 16:31N 36°07' W 005°18'0 0.0
2014-Oct-23 15:28N 36°07' W 005°18'0 0.0
2014-Oct-23 14:28N 36°07' W 005°18'0 0.0
2014-Oct-23 13:31N 36°07' W 005°18'0 0.0
2014-Oct-23 12:31N 36°07' W 005°18'0 0.0
2014-Oct-23 11:31N 36°07' W 005°18'0 0.0
2014-Oct-23 10:31N 36°07' W 005°18'0 0.0
2014-Oct-23 09:31N 36°07' W 005°18'0 0.0
2014-Oct-23 08:28N 36°07' W 005°18'0 0.0
2014-Oct-23 07:31N 36°07' W 005°18'0 0.0
2014-Oct-23 06:31N 36°07' W 005°18'0 0.0
2014-Oct-23 05:31N 36°07' W 005°18'0 0.0
2014-Oct-23 04:31N 36°07' W 005°18'0 0.0
2014-Oct-23 03:31N 36°07' W 005°18'0 0.0
2014-Oct-23 02:31N 36°07' W 005°18'0 0.0
2014-Oct-23 01:31N 36°07' W 005°18'0 0.0
2014-Oct-23 00:31N 36°07' W 005°18'0 0.0
2014-Oct-22 23:28N 36°07' W 005°18'0 0.0
2014-Oct-22 22:31N 36°07' W 005°18'0 0.0
2014-Oct-22 21:31N 36°07' W 005°18'0 0.0
2014-Oct-22 20:31N 36°07' W 005°18'0 0.0
2014-Oct-22 19:31N 36°07' W 005°18'0 0.1
2014-Oct-22 18:31N 36°07' W 005°18'0 0.0
2014-Oct-22 17:31N 36°07' W 005°18'0 0.1
2014-Oct-22 16:31N 36°07' W 005°18'0 0.0
2014-Oct-22 15:31N 36°07' W 005°18'0 0.0
2014-Oct-22 14:22N 36°07' W 005°18'0 0.0
2014-Oct-22 10:31N 36°07' W 005°18'0 0.0
2014-Oct-22 09:31N 36°07' W 005°18'0 0.1
2014-Oct-22 08:28N 36°07' W 005°18'0 0.0
2014-Oct-22 07:31N 36°07' W 005°18'0 0.0
2014-Oct-22 06:31N 36°07' W 005°18'0 0.0
2014-Oct-22 05:31N 36°07' W 005°18'0 0.0
2014-Oct-22 04:31N 36°07' W 005°18'0 0.0
2014-Oct-22 03:22N 36°07' W 005°18'0 0.1
2014-Oct-22 02:10N 36°07' W 005°18'0 0.0
2014-Oct-22 01:31N 36°07' W 005°18'0 0.0
2014-Oct-21 22:10N 36°07' W 005°18'0 0.0
2014-Oct-21 21:31N 36°07' W 005°18'0 0.0
2014-Oct-21 20:16N 36°07' W 005°18'0 0.0
2014-Oct-21 18:31N 36°07' W 005°18'0 0.0
2014-Oct-21 17:28N 36°07' W 005°18'0 0.0
2014-Oct-21 16:28N 36°07' W 005°18'0 0.0
2014-Oct-21 15:31N 36°07' W 005°18'0 0.1
2014-Oct-21 14:31N 36°07' W 005°18'0 0.1
2014-Oct-21 13:25N 36°07' W 005°18'0 0.1
2014-Oct-21 12:22N 36°07' W 005°18'0 0.0
2014-Oct-21 10:25N 36°07' W 005°18'0 0.0
2014-Oct-21 09:31N 36°07' W 005°18'0 0.0
2014-Oct-21 08:28N 36°07' W 005°18'0 0.0
2014-Oct-21 07:28N 36°07' W 005°18'0 0.0
2014-Oct-21 06:25N 36°07' W 005°18'0 0.0
2014-Oct-21 05:28N 36°07' W 005°18'0 0.0
2014-Oct-21 04:16N 36°07' W 005°18'0 0.0
2014-Oct-21 03:31N 36°07' W 005°18'0 0.0
2014-Oct-21 02:28N 36°07' W 005°18'0 0.0
2014-Oct-21 01:04N 36°07' W 005°18'0 0.0
2014-Oct-21 00:22N 36°07' W 005°18'0 0.0
2014-Oct-20 22:19N 36°07' W 005°18'0 0.0
2014-Oct-20 21:19N 36°07' W 005°18'0 0.0
2014-Oct-20 19:28N 36°07' W 005°18'0 0.0
2014-Oct-20 16:16N 36°07' W 005°18'0 0.0
2014-Oct-20 15:04N 36°07' W 005°18'0 0.1
2014-Oct-20 14:28N 36°07' W 005°18'0 0.0
2014-Oct-20 13:28N 36°07' W 005°18'0 0.0
2014-Oct-20 12:10N 36°07' W 005°18'0 0.0
2014-Oct-20 11:04N 36°07' W 005°18'0 0.0
2014-Oct-20 10:04N 36°07' W 005°18'0 0.1
2014-Oct-20 09:31N 36°07' W 005°18'0 0.0
2014-Oct-20 07:31N 36°07' W 005°18'0 0.0
2014-Oct-20 06:31N 36°07' W 005°18'0 0.0
2014-Oct-20 05:28N 36°07' W 005°18'0 0.0
2014-Oct-20 04:31N 36°07' W 005°18'  

Dump ship's entire track history